createdAt,value
2022-08-23T00:00:20.250Z,98979.48
2022-08-23T00:03:38.234Z,98984.02
2022-08-23T00:06:41.222Z,98986.88
2022-08-23T00:09:43.444Z,98980.90
2022-08-23T00:12:46.940Z,98974.55
2022-08-23T00:15:48.776Z,98972.14
2022-08-23T00:18:51.162Z,98972.58
2022-08-23T00:21:54.912Z,98981.56
2022-08-23T00:24:57.107Z,98981.13
2022-08-23T00:27:59.538Z,98976.69
2022-08-23T00:31:01.442Z,98978.80
2022-08-23T00:34:04.147Z,98987.95
2022-08-23T00:37:07.744Z,98999.83
2022-08-23T00:40:11.677Z,99003.95
2022-08-23T00:43:34.450Z,99000.51
2022-08-23T00:47:05.346Z,98999.81
2022-08-23T00:50:23.320Z,99003.71
2022-08-23T00:53:30.236Z,99012.70
2022-08-23T00:56:34.165Z,99019.40
2022-08-23T00:59:36.306Z,99014.20
2022-08-23T01:02:38.605Z,99015.89
2022-08-23T01:06:13.001Z,99014.11
2022-08-23T01:09:20.388Z,99019.94
2022-08-23T01:12:30.434Z,99013.52
2022-08-23T01:15:56.615Z,99005.27
2022-08-23T01:18:58.339Z,99006.06
2022-08-23T01:22:28.277Z,99001.14
2022-08-23T01:25:32.013Z,98993.18
2022-08-23T01:28:34.404Z,98990.98
2022-08-23T01:31:36.660Z,98986.17
2022-08-23T01:34:44.806Z,98988.28
2022-08-23T01:37:53.568Z,98991.19
2022-08-23T01:40:55.352Z,98990.23
2022-08-23T01:43:57.958Z,98992.54
2022-08-23T01:46:59.692Z,98993.67
2022-08-23T01:50:01.767Z,98989.95
2022-08-23T01:53:04.722Z,98991.39
2022-08-23T01:56:07.534Z,98988.46
2022-08-23T01:59:10.837Z,98992.02
2022-08-23T02:02:12.741Z,98992.83
2022-08-23T02:05:18.370Z,98992.27
2022-08-23T02:08:40.161Z,98993.73
2022-08-23T02:11:42.861Z,98995.09
2022-08-23T02:14:44.575Z,98994.39
2022-08-23T02:17:49.620Z,98995.70
2022-08-23T02:20:53.556Z,98995.67
2022-08-23T02:23:55.425Z,98999.70
2022-08-23T02:27:01.865Z,98995.27
2022-08-23T02:30:05.192Z,98995.65
2022-08-23T02:33:07.208Z,99001.77
2022-08-23T02:36:09.417Z,99004.28
2022-08-23T02:39:12.911Z,98996.69
2022-08-23T02:42:15.099Z,98997.52
2022-08-23T02:45:17.620Z,98998.20
2022-08-23T02:48:20.445Z,99006.22
2022-08-23T02:51:22.942Z,99014.91
2022-08-23T02:54:24.956Z,99017.60
2022-08-23T02:57:27.373Z,99011.09
2022-08-23T03:00:32.496Z,99011.13
2022-08-23T03:03:34.670Z,99011.02
2022-08-23T03:06:39.880Z,99012.65
2022-08-23T03:09:41.632Z,99021.10
2022-08-23T03:12:43.452Z,99022.91
2022-08-23T03:15:45.376Z,99027.58
2022-08-23T03:18:48.450Z,99023.30
2022-08-23T03:21:50.469Z,99022.70
2022-08-23T03:24:52.647Z,99022.41
2022-08-23T03:27:54.978Z,99020.44
2022-08-23T03:30:57.411Z,99017.04
2022-08-23T03:33:59.241Z,99022.70
2022-08-23T03:37:01.111Z,99022.80
2022-08-23T03:40:05.422Z,99024.19
2022-08-23T03:43:07.302Z,99018.38
2022-08-23T03:46:09.245Z,99016.16
2022-08-23T03:49:11.325Z,99016.80
2022-08-23T03:52:13.552Z,99024.12
2022-08-23T03:55:16.198Z,99029.47
2022-08-23T03:58:18.192Z,99034.23
2022-08-23T04:01:22.434Z,99043.60
2022-08-23T04:04:25.949Z,99042.70
2022-08-23T04:07:28.319Z,99047.39
2022-08-23T04:10:30.181Z,99051.88
2022-08-23T04:13:32.018Z,99054.49
2022-08-23T04:16:37.756Z,99057.61
2022-08-23T04:19:39.625Z,99058.89
2022-08-23T04:22:41.362Z,99060.36
2022-08-23T04:25:45.956Z,99063.42
2022-08-23T04:28:47.777Z,99065.75
2022-08-23T04:31:49.466Z,99066.63
2022-08-23T04:34:51.629Z,99068.77
2022-08-23T04:37:53.928Z,99079.02
2022-08-23T04:41:15.178Z,99078.61
2022-08-23T04:44:17.386Z,99074.38
2022-08-23T04:47:20.532Z,99074.26
2022-08-23T04:50:22.364Z,99074.64
2022-08-23T04:53:24.105Z,99075.19
2022-08-23T04:56:25.855Z,99084.08
2022-08-23T04:59:27.866Z,99087.14
2022-08-23T05:02:29.657Z,99094.09
2022-08-23T05:05:31.371Z,99092.89
2022-08-23T05:08:33.626Z,99090.10
2022-08-23T05:11:35.449Z,99091.00
2022-08-23T05:14:37.428Z,99095.06
2022-08-23T05:17:39.561Z,99098.01
2022-08-23T05:20:42.014Z,99102.50
2022-08-23T05:23:43.902Z,99106.39
2022-08-23T05:26:52.608Z,99107.36
2022-08-23T05:29:54.526Z,99105.04
2022-08-23T05:32:56.327Z,99110.87
2022-08-23T05:35:58.835Z,99113.52
2022-08-23T05:39:00.671Z,99116.83
2022-08-23T05:42:02.453Z,99116.45
2022-08-23T05:45:06.159Z,99117.57
2022-08-23T05:48:08.249Z,99120.04
2022-08-23T05:51:19.722Z,99117.11
2022-08-23T05:54:21.682Z,99111.85
2022-08-23T05:57:23.725Z,99118.62
2022-08-23T06:00:25.680Z,99118.21
2022-08-23T06:03:40.071Z,99123.08
2022-08-23T06:06:43.039Z,99126.05
2022-08-23T06:09:45.333Z,99125.33
2022-08-23T06:12:47.785Z,99126.30
2022-08-23T06:15:49.779Z,99131.27
2022-08-23T06:18:52.254Z,99132.45
2022-08-23T06:21:55.377Z,99133.81
2022-08-23T06:24:57.570Z,99133.70
2022-08-23T06:27:59.676Z,99139.64
2022-08-23T06:31:02.233Z,99143.77
2022-08-23T06:34:07.530Z,99148.41
2022-08-23T06:37:17.377Z,99146.98
2022-08-23T06:40:20.034Z,99147.19
2022-08-23T06:43:26.405Z,99145.42
2022-08-23T06:46:30.048Z,99147.95
2022-08-23T06:49:32.652Z,99153.48
2022-08-23T06:52:34.377Z,99160.18
2022-08-23T06:55:36.196Z,99165.80
2022-08-23T06:58:37.898Z,99168.98
2022-08-23T07:01:50.094Z,99176.14
2022-08-23T07:04:54.279Z,99178.86
2022-08-23T07:07:56.253Z,99174.83
2022-08-23T07:10:58.011Z,99173.94
2022-08-23T07:14:01.110Z,99179.15
2022-08-23T07:17:03.979Z,99180.16
2022-08-23T07:20:07.074Z,99180.63
2022-08-23T07:23:09.050Z,99180.14
2022-08-23T07:26:13.114Z,99183.09
2022-08-23T07:29:16.204Z,99185.86
2022-08-23T07:32:18.768Z,99188.29
2022-08-23T07:35:21.674Z,99187.57
2022-08-23T07:38:23.755Z,99184.20
2022-08-23T07:41:33.517Z,99187.36
2022-08-23T07:44:35.193Z,99191.14
2022-08-23T07:47:37.058Z,99193.63
2022-08-23T07:50:56.059Z,99195.28
2022-08-23T07:54:02.614Z,99196.67
2022-08-23T07:57:04.574Z,99204.36
2022-08-23T08:00:08.164Z,99210.60
2022-08-23T08:03:12.556Z,99208.23
2022-08-23T08:06:18.177Z,99207.10
2022-08-23T08:09:20.410Z,99210.92
2022-08-23T08:12:23.222Z,99214.08
2022-08-23T08:15:25.748Z,99215.20
2022-08-23T08:18:27.550Z,99216.94
2022-08-23T08:21:29.805Z,99223.08
2022-08-23T08:24:31.658Z,99220.23
2022-08-23T08:27:34.650Z,99225.46
2022-08-23T08:30:37.776Z,99228.92
2022-08-23T08:33:39.814Z,99234.74
2022-08-23T08:36:47.182Z,99234.11
2022-08-23T08:39:49.355Z,99235.44
2022-08-23T08:42:54.482Z,99226.05
2022-08-23T08:46:24.305Z,99229.06
2022-08-23T08:49:45.712Z,99230.47
2022-08-23T08:52:52.030Z,99228.70
2022-08-23T08:55:57.878Z,99229.13
2022-08-23T08:59:06.635Z,99231.08
2022-08-23T09:02:32.081Z,99231.27
2022-08-23T09:05:38.185Z,99231.85
2022-08-23T09:08:49.890Z,99233.23
2022-08-23T09:12:29.655Z,99234.33
2022-08-23T09:16:00.555Z,99227.23
2022-08-23T09:19:03.746Z,99223.77
2022-08-23T09:22:14.481Z,99223.20
2022-08-23T09:25:17.122Z,99223.98
2022-08-23T09:28:19.409Z,99223.65
2022-08-23T09:31:58.617Z,99225.29
2022-08-23T09:35:12.162Z,99223.25
2022-08-23T09:38:14.124Z,99226.19
2022-08-23T09:41:20.337Z,99228.57
2022-08-23T09:44:41.514Z,99227.83
2022-08-23T09:47:44.861Z,99230.27
2022-08-23T09:50:54.584Z,99230.02
2022-08-23T09:54:22.187Z,99226.27
2022-08-23T09:57:28.085Z,99224.30
2022-08-23T10:00:34.266Z,99227.44
2022-08-23T10:03:36.646Z,99232.02
2022-08-23T10:06:39.851Z,99233.29
2022-08-23T10:09:41.706Z,99231.30
2022-08-23T10:12:43.700Z,99234.11
2022-08-23T10:15:54.566Z,99231.99
2022-08-23T10:19:20.296Z,99231.83
2022-08-23T10:22:26.474Z,99229.80
2022-08-23T10:25:40.531Z,99223.02
2022-08-23T10:29:18.139Z,99225.88
2022-08-23T10:32:32.174Z,99229.36
2022-08-23T10:35:42.661Z,99232.75
2022-08-23T10:38:50.801Z,99232.41
2022-08-23T10:42:04.605Z,99233.08
2022-08-23T10:45:17.080Z,99236.96
2022-08-23T10:48:29.859Z,99237.33
2022-08-23T10:51:40.517Z,99237.99
2022-08-23T10:55:06.144Z,99240.98
2022-08-23T10:58:13.314Z,99237.77
2022-08-23T11:01:19.539Z,99240.80
2022-08-23T11:04:39.274Z,99245.81
2022-08-23T11:07:42.909Z,99241.41
2022-08-23T11:10:56.480Z,99237.54
2022-08-23T11:13:59.415Z,99237.73
2022-08-23T11:17:07.947Z,99244.27
2022-08-23T11:20:12.972Z,99245.52
2022-08-23T11:23:17.886Z,99246.86
2022-08-23T11:26:22.715Z,99249.52
2022-08-23T11:29:24.648Z,99247.13
2022-08-23T11:32:38.718Z,99247.84
2022-08-23T11:35:44.526Z,99242.91
2022-08-23T11:38:48.997Z,99239.86
2022-08-23T11:41:53.972Z,99227.52
2022-08-23T11:44:55.873Z,99232.87
2022-08-23T11:48:19.583Z,99240.00
2022-08-23T11:51:33.371Z,99235.91
2022-08-23T11:54:46.650Z,99233.80
2022-08-23T11:58:12.402Z,99235.46
2022-08-23T12:01:14.602Z,99236.89
2022-08-23T12:04:36.173Z,99236.67
2022-08-23T12:07:47.842Z,99238.08
2022-08-23T12:10:50.863Z,99242.73
2022-08-23T12:13:55.554Z,99242.20
2022-08-23T12:17:04.108Z,99248.41
2022-08-23T12:20:16.747Z,99247.13
2022-08-23T12:23:20.963Z,99243.89
2022-08-23T12:26:38.609Z,99241.96
2022-08-23T12:29:58.931Z,99242.52
2022-08-23T12:33:05.799Z,99240.61
2022-08-23T12:36:45.458Z,99235.14
2022-08-23T12:39:51.266Z,99236.21
2022-08-23T12:43:03.724Z,99230.77
2022-08-23T12:46:06.892Z,99228.67
2022-08-23T12:49:13.488Z,99232.24
2022-08-23T12:52:16.794Z,99229.95
2022-08-23T12:55:20.241Z,99229.13
2022-08-23T12:58:31.722Z,99231.06
2022-08-23T13:01:38.562Z,99232.50
2022-08-23T13:04:40.809Z,99228.53
2022-08-23T13:07:42.850Z,99230.73
2022-08-23T13:10:46.284Z,99225.08
2022-08-23T13:13:48.202Z,99222.32
2022-08-23T13:16:50.479Z,99220.77
2022-08-23T13:20:01.115Z,99221.71
2022-08-23T13:23:09.494Z,99223.36
2022-08-23T13:26:27.551Z,99218.78
2022-08-23T13:29:29.340Z,99215.80
2022-08-23T13:33:09.566Z,99216.00
2022-08-23T13:36:17.995Z,99212.08
2022-08-23T13:39:23.085Z,99210.69
2022-08-23T13:42:42.443Z,99208.48
2022-08-23T13:45:50.076Z,99203.73
2022-08-23T13:48:54.898Z,99205.56
2022-08-23T13:52:18.370Z,99205.53
2022-08-23T13:55:21.850Z,99201.45
2022-08-23T13:58:32.470Z,99204.36
2022-08-23T14:01:34.755Z,99208.62
2022-08-23T14:04:36.460Z,99203.24
2022-08-23T14:07:38.366Z,99201.05
2022-08-23T14:10:40.332Z,99196.15
2022-08-23T14:13:45.219Z,99199.14
2022-08-23T14:16:47.034Z,99199.98
2022-08-23T14:23:12.057Z,99196.77
2022-08-23T14:26:17.841Z,99198.56
2022-08-23T14:29:22.478Z,99198.23
2022-08-23T14:32:24.596Z,99196.67
2022-08-23T14:35:28.465Z,99202.31
2022-08-23T14:38:31.713Z,99202.11
2022-08-23T14:41:33.689Z,99201.68
2022-08-23T14:44:36.516Z,99208.36
2022-08-23T14:47:39.447Z,99214.52
2022-08-23T14:50:41.330Z,99211.16
2022-08-23T14:53:43.106Z,99211.90
2022-08-23T14:56:44.975Z,99211.27
2022-08-23T14:59:46.717Z,99214.50
2022-08-23T15:02:50.415Z,99219.24
2022-08-23T15:05:52.971Z,99221.08
2022-08-23T15:08:54.789Z,99226.36
2022-08-23T15:15:21.771Z,99234.60
2022-08-23T15:18:25.146Z,99234.39
2022-08-23T15:21:27.234Z,99236.95
2022-08-23T15:24:29.453Z,99237.78
2022-08-23T15:27:31.452Z,99235.52
2022-08-23T15:30:33.596Z,99242.31
2022-08-23T15:33:36.414Z,99239.17
2022-08-23T15:36:41.548Z,99236.64
2022-08-23T15:39:43.641Z,99244.55
2022-08-23T15:42:45.414Z,99249.54
2022-08-23T15:45:48.551Z,99256.31
2022-08-23T15:49:06.386Z,99256.73
2022-08-23T15:52:08.190Z,99258.06
2022-08-23T15:55:10.565Z,99259.40
2022-08-23T15:58:19.786Z,99254.89
2022-08-23T16:01:24.675Z,99258.11
2022-08-23T16:04:26.736Z,99256.20
2022-08-23T16:07:36.912Z,99261.66
2022-08-23T16:10:39.069Z,99265.95
2022-08-23T16:13:42.904Z,99273.19
2022-08-23T16:16:48.534Z,99273.66
2022-08-23T16:19:50.360Z,99273.80
2022-08-23T16:22:53.119Z,99279.72
2022-08-23T16:25:59.109Z,99286.12
2022-08-23T16:29:06.041Z,99286.06
2022-08-23T16:32:08.426Z,99286.73
2022-08-23T16:35:10.685Z,99285.86
2022-08-23T16:38:12.501Z,99284.57
2022-08-23T16:41:14.277Z,99286.19
2022-08-23T16:44:15.992Z,99287.95
2022-08-23T16:47:18.392Z,99293.50
2022-08-23T16:50:20.190Z,99295.18
2022-08-23T16:53:22.145Z,99298.23
2022-08-23T16:56:23.957Z,99298.23
2022-08-23T16:59:25.815Z,99303.52
2022-08-23T17:02:31.838Z,99299.34
2022-08-23T17:05:33.755Z,99294.42
2022-08-23T17:08:35.854Z,99290.84
2022-08-23T17:11:40.075Z,99282.20
2022-08-23T17:14:42.253Z,99282.08
2022-08-23T17:17:44.262Z,99279.96
2022-08-23T17:20:46.516Z,99282.52
2022-08-23T17:23:48.507Z,99293.89
2022-08-23T17:26:51.165Z,99299.97
2022-08-23T17:29:52.798Z,99296.13
2022-08-23T17:32:57.243Z,99304.40
2022-08-23T17:35:58.959Z,99312.59
2022-08-23T17:39:02.138Z,99307.64
2022-08-23T17:42:04.137Z,99318.13
2022-08-23T17:45:08.229Z,99330.87
2022-08-23T17:48:11.459Z,99333.56
2022-08-23T17:51:13.247Z,99332.39
2022-08-23T17:54:16.030Z,99339.31
2022-08-23T17:57:18.569Z,99348.67
2022-08-23T18:00:20.714Z,99357.77
2022-08-23T18:03:23.282Z,99365.02
2022-08-23T18:06:25.618Z,99364.83
2022-08-23T18:09:27.557Z,99362.20
2022-08-23T18:12:29.398Z,99360.02
2022-08-23T18:15:31.935Z,99372.34
2022-08-23T18:18:33.944Z,99386.20
2022-08-23T18:21:37.702Z,99391.21
2022-08-23T18:24:39.536Z,99387.08
2022-08-23T18:27:59.837Z,99391.66
2022-08-23T18:31:03.888Z,99400.16
2022-08-23T18:34:05.766Z,99406.52
2022-08-23T18:37:07.809Z,99406.09
2022-08-23T18:40:10.543Z,99412.30
2022-08-23T18:43:21.035Z,99419.17
2022-08-23T18:46:23.354Z,99415.63
2022-08-23T18:49:25.219Z,99414.37
2022-08-23T18:52:29.174Z,99409.27
2022-08-23T18:55:33.574Z,99406.41
2022-08-23T18:58:35.725Z,99413.20
2022-08-23T19:01:40.678Z,99420.48
2022-08-23T19:04:42.738Z,99417.50
2022-08-23T19:07:44.586Z,99410.98
2022-08-23T19:10:47.508Z,99407.45
2022-08-23T19:13:51.243Z,99405.29
2022-08-23T19:16:53.776Z,99402.36
2022-08-23T19:19:55.547Z,99400.27
2022-08-23T19:22:57.531Z,99403.52
2022-08-23T19:26:00.545Z,99400.11
2022-08-23T19:29:06.245Z,99402.07
2022-08-23T19:32:08.155Z,99404.45
2022-08-23T19:35:10.604Z,99401.98
2022-08-23T19:38:14.456Z,99395.88
2022-08-23T19:41:16.401Z,99400.92
2022-08-23T19:44:18.648Z,99410.41
2022-08-23T19:47:23.625Z,99411.27
2022-08-23T19:50:30.706Z,99412.67
2022-08-23T19:53:32.743Z,99419.42
2022-08-23T19:56:41.585Z,99435.60
2022-08-23T19:59:43.474Z,99445.11
2022-08-23T20:02:45.248Z,99441.25
2022-08-23T20:05:47.301Z,99439.92
2022-08-23T20:08:52.365Z,99447.83
2022-08-23T20:11:54.108Z,99453.80
2022-08-23T20:14:57.109Z,99449.01
2022-08-23T20:17:58.965Z,99455.05
2022-08-23T20:21:01.096Z,99460.23
2022-08-23T20:24:05.720Z,99459.38
2022-08-23T20:27:07.732Z,99467.31
2022-08-23T20:30:14.808Z,99470.45
2022-08-23T20:33:16.605Z,99471.73
2022-08-23T20:36:20.667Z,99479.35
2022-08-23T20:39:24.158Z,99488.95
2022-08-23T20:42:26.663Z,99492.67
2022-08-23T20:45:29.190Z,99493.86
2022-08-23T20:48:31.248Z,99491.95
2022-08-23T20:51:36.522Z,99487.45
2022-08-23T20:54:39.045Z,99484.28
2022-08-23T20:57:40.756Z,99485.05
2022-08-23T21:00:42.634Z,99489.61
2022-08-23T21:03:44.465Z,99496.11
2022-08-23T21:06:48.834Z,99496.23
2022-08-23T21:09:51.020Z,99506.05
2022-08-23T21:12:53.230Z,99517.00
2022-08-23T21:15:55.072Z,99515.58
2022-08-23T21:18:57.021Z,99514.52
2022-08-23T21:21:58.872Z,99503.89
2022-08-23T21:25:00.851Z,99505.48
2022-08-23T21:28:04.430Z,99504.80
2022-08-23T21:31:08.881Z,99497.37
2022-08-23T21:34:11.998Z,99494.88
2022-08-23T21:37:13.829Z,99496.80
2022-08-23T21:40:15.615Z,99494.41
2022-08-23T21:43:18.230Z,99489.25
2022-08-23T21:46:20.724Z,99483.13
2022-08-23T21:49:23.293Z,99484.02
2022-08-23T21:52:25.210Z,99482.75
2022-08-23T21:55:35.248Z,99484.63
2022-08-23T21:58:39.824Z,99482.16
2022-08-23T22:01:42.884Z,99476.52
2022-08-23T22:04:44.985Z,99472.00
2022-08-23T22:07:47.263Z,99476.85
2022-08-23T22:10:57.431Z,99478.15
2022-08-23T22:14:00.377Z,99479.95
2022-08-23T22:17:02.259Z,99474.61
2022-08-23T22:20:06.729Z,99466.16
2022-08-23T22:23:08.651Z,99465.12
2022-08-23T22:26:12.295Z,99470.39
2022-08-23T22:29:15.904Z,99473.45
2022-08-23T22:32:17.643Z,99467.66
2022-08-23T22:35:19.605Z,99463.32
2022-08-23T22:38:21.359Z,99466.92
2022-08-23T22:41:27.377Z,99465.39
2022-08-23T22:44:29.229Z,99457.98
2022-08-23T22:47:31.215Z,99451.98
2022-08-23T22:50:32.918Z,99444.65
2022-08-23T22:53:36.807Z,99445.19
2022-08-23T22:56:41.908Z,99450.38
2022-08-23T22:59:44.088Z,99450.51
2022-08-23T23:02:46.019Z,99449.77
2022-08-23T23:05:47.804Z,99457.34
2022-08-23T23:08:50.205Z,99456.68
2022-08-23T23:11:52.182Z,99462.51
2022-08-23T23:14:53.970Z,99463.72
2022-08-23T23:17:55.909Z,99465.80
2022-08-23T23:21:00.318Z,99467.83
2022-08-23T23:24:02.724Z,99470.45
2022-08-23T23:27:05.361Z,99474.06
2022-08-23T23:30:08.981Z,99470.44
2022-08-23T23:33:11.549Z,99467.55
2022-08-23T23:36:16.554Z,99466.68
2022-08-23T23:39:19.457Z,99464.41
2022-08-23T23:42:21.658Z,99465.66
2022-08-23T23:45:23.514Z,99470.42
2022-08-23T23:48:25.366Z,99475.40
2022-08-23T23:51:29.353Z,99477.84
2022-08-23T23:54:31.854Z,99479.92
2022-08-23T23:57:33.725Z,99477.85
